Lightwater, United Kingdom
Current Conditions -  °F | °C
As of 5:20 PM on Thursday 30 Oct 2014 (Local Time) from EGLF Reporting Station
Few Clouds Few Clouds  
Wind Chill: 57°   Ceiling: Unl
Heat Index: 57°   Visibility: 4mi
Dew Point: 55°   Wind: 6mph
Humidity: 94%   Direction: 140°SE
Pressure: 30.06"   Gusts: NA
Location:  51.35°N, 0.67°W
Report Text: EGLF 301720Z 14005KT 7000 FEW013 14/13 Q1018
Loading
Personal Weather Stations






























Interactive Weather Map
Tropical Storm Tracking
New forecast layout! Learn more

10-Day Weather Forecast

Advertisements
Track Severe Weather on mobile